Bakerview, Washington
Current Conditions -  °F | °C
As of 9:53 AM on Thursday 27 Nov 2014 (Local Time) from KBLI Reporting Station
Overcast Overcast  
Wind Chill: 54°   Ceiling: 4400
Heat Index: 54°   Visibility: 10mi
Dew Point: 50°   Wind: 14mph
Humidity: 86%   Direction: 160°SSE
Pressure: 29.76"   Gusts: 22mph
Location:  48.8172°N, 122.404°W
Report Text: KBLI 271753Z 16012G19KT 10SM SCT036 BKN044 OVC080 12/10 A2976 RMK AO2 RAE1655 SLP084 P0000 60007 T01220100 10128 20117 51006
Loading
Personal Weather Stations






























Interactive Weather Map New forecast layout! Learn more

10-Day Weather Forecast

Advertisements
Track Severe Weather on mobile